Malone, Texas
Current Conditions -  °F | °C
As of 10:15 PM on Thursday 27 Nov 2014 (Local Time) from KINJ Reporting Station
Clear Clear  
Wind Chill:   Ceiling: Unl
Heat Index:   Visibility: 10mi
Dew Point: -3°   Wind: 5mph
Humidity: 49%   Direction: 130°SE
Pressure: 30.38"   Gusts: NA
Location:  31.92°N, 96.89°W
Report Text: KINJ 280415Z AUTO 13004KT 10SM CLR 08/M02 A3038 RMK AO2 T00751025
Loading
Personal Weather Stations






























Interactive Weather Map New forecast layout! Learn more

10-Day Weather Forecast

Advertisements
Track Severe Weather on mobile